Athens, Illinois
Current Conditions -  °F | °C
As of 8:52 PM on Friday 31 Oct 2014 (Local Time) from KSPI Reporting Station
Broken Clouds Broken Clouds  
Wind Chill: 29°   Ceiling: 5000
Heat Index: 36°   Visibility: 10mi
Dew Point: 22°   Wind: 9mph
Humidity: 57%   Direction: 350°N
Pressure: 30.38"   Gusts: NA
Location:  39.96°N, 89.72°W
Report Text: KSPI 010152Z 35008KT 10SM BKN050 02/M06 A3038 RMK AO2 SLP292 T00221056
Loading
Personal Weather Stations






























Interactive Weather Map
Tropical Storm Tracking
New forecast layout! Learn more

10-Day Weather Forecast

Advertisements
Track Severe Weather on mobile